Time;durP1;ratioP1;P1;durP2;ratioP2;P2;SDS_P1;SDS_P2;PMS_P1;PMS_P2;Temp;Humidity;BMP_temperature;BMP_pressure;BME280_temperature;BME280_humidity;BME280_pressure;Samples;Min_cycle;Max_cycle;Signal;HPM_P1;HPM_P2
2023/09/22 00:00:41;;;;;;;;;;;;;;;19.74;100.00;98473.63;4998999;28;20329;-80
2023/09/22 00:03:08;;;;;;;;;;;;;;;19.77;100.00;98467.84;4982153;28;20060;-80
2023/09/22 00:05:35;;;;;;;;;;;;;;;19.78;100.00;98485.53;4983795;28;19926;-79
2023/09/22 00:08:01;;;;;;;;;;;;;;;19.79;100.00;98473.75;4980551;28;19925;-79
2023/09/22 00:10:26;;;;;;;;;;;;;;;19.80;100.00;98453.97;4982574;28;19922;-79
2023/09/22 00:12:52;;;;;;;;;;;;;;;19.81;100.00;98462.84;4981208;28;19969;-80
2023/09/22 00:15:20;;;;;;;;;;;;;;;19.79;100.00;98486.34;4979725;28;20589;-80
2023/09/22 00:17:46;;;;;;;;;;;;;;;19.76;100.00;98492.97;4997448;28;19922;-77
2023/09/22 00:20:14;;;;;;;;;;;;;;;19.76;100.00;98486.78;4984084;28;20602;-79
2023/09/22 00:22:40;;;;;;;;;;;;;;;19.68;100.00;98489.78;4980778;28;19922;-79
2023/09/22 00:25:06;;;;;;;;;;;;;;;19.64;100.00;98478.72;4986362;28;20310;-78
2023/09/22 00:27:31;;;;;;;;;;;;;;;19.63;100.00;98469.06;4979691;28;19926;-78
2023/09/22 00:29:57;;;;;;;;;;;;;;;19.58;100.00;98487.66;4982189;28;19930;-78
2023/09/22 00:32:23;;;;;;;;;;;;;;;19.58;100.00;98484.97;4980656;28;20377;-79
2023/09/22 00:34:48;;;;;;;;;;;;;;;19.51;100.00;98484.25;4979822;28;19941;-79
2023/09/22 00:37:13;;;;;;;;;;;;;;;19.53;100.00;98474.13;4985491;28;19944;-80
2023/09/22 00:39:39;;;;;;;;;;;;;;;19.56;100.00;98468.31;4979285;28;19957;-80
2023/09/22 00:42:09;;;;;;;;;;;;;;;19.56;100.00;98461.13;4983612;28;19994;-80
2023/09/22 00:44:38;;;;;;;;;;;;;;;19.59;100.00;98457.19;5004347;28;20032;-80
2023/09/22 00:47:04;;;;;;;;;;;;;;;19.60;100.00;98456.97;4980542;28;19919;-79
2023/09/22 00:49:31;;;;;;;;;;;;;;;19.56;100.00;98450.41;4986348;28;19930;-80
2023/09/22 00:51:56;;;;;;;;;;;;;;;19.42;100.00;98454.28;4983098;28;19928;-78
2023/09/22 00:54:23;;;;;;;;;;;;;;;19.37;100.00;98451.47;4983535;28;20353;-78
2023/09/22 00:56:48;;;;;;;;;;;;;;;19.31;100.00;98451.56;4986474;28;20390;-79
2023/09/22 00:59:15;;;;;;;;;;;;;;;19.38;100.00;98452.31;4982630;28;19965;-78
2023/09/22 01:01:42;;;;;;;;;;;;;;;19.37;100.00;98456.00;4978822;28;19926;-79
2023/09/22 01:04:07;;;;;;;;;;;;;;;19.37;100.00;98439.97;4987173;28;19922;-78
2023/09/22 01:06:33;;;;;;;;;;;;;;;19.36;100.00;98425.78;4983797;28;19922;-79
2023/09/22 01:09:05;;;;;;;;;;;;;;;19.38;100.00;98431.69;4985363;28;19929;-79
2023/09/22 01:11:34;;;;;;;;;;;;;;;19.38;100.00;98436.25;4983785;28;20388;-78
2023/09/22 01:14:00;;;;;;;;;;;;;;;19.39;100.00;98424.47;4984975;28;20294;-77
2023/09/22 01:16:26;;;;;;;;;;;;;;;19.37;100.00;98424.72;4986174;28;20260;-78
2023/09/22 01:18:52;;;;;;;;;;;;;;;19.38;100.00;98418.31;4987565;28;20445;-77
2023/09/22 01:21:18;;;;;;;;;;;;;;;19.41;100.00;98419.72;4983876;28;19922;-78
2023/09/22 01:23:43;;;;;;;;;;;;;;;19.37;100.00;98407.88;4988564;28;19929;-78
2023/09/22 01:26:09;;;;;;;;;;;;;;;19.41;100.00;98411.72;4978783;28;19926;-78
2023/09/22 01:28:34;;;;;;;;;;;;;;;19.44;100.00;98414.72;4983604;28;19985;-78
2023/09/22 01:31:01;;;;;;;;;;;;;;;19.47;100.00;98430.38;4984821;28;19928;-78
2023/09/22 01:33:27;;;;;;;;;;;;;;;19.48;100.00;98441.91;4983217;28;19922;-78
2023/09/22 01:35:53;;;;;;;;;;;;;;;19.50;100.00;98439.78;4984366;28;19922;-77
2023/09/22 01:38:19;;;;;;;;;;;;;;;19.53;100.00;98439.34;4986092;28;19926;-79
2023/09/22 01:40:45;;;;;;;;;;;;;;;19.54;100.00;98446.34;4984178;28;20394;-79
2023/09/22 01:43:11;;;;;;;;;;;;;;;19.55;100.00;98439.97;4985899;28;20374;-79
2023/09/22 01:45:37;;;;;;;;;;;;;;;19.54;100.00;98424.94;4984822;28;19925;-79
2023/09/22 01:48:03;;;;;;;;;;;;;;;19.55;100.00;98423.91;4981759;28;20437;-78
2023/09/22 01:50:33;;;;;;;;;;;;;;;19.56;100.00;98433.53;4982974;28;20016;-78
2023/09/22 01:52:58;;;;;;;;;;;;;;;19.52;100.00;98427.00;4982355;28;20445;-81
2023/09/22 01:55:24;;;;;;;;;;;;;;;19.53;100.00;98420.63;4983229;28;19961;-80
2023/09/22 01:57:50;;;;;;;;;;;;;;;19.56;100.00;98406.78;5001107;28;20049;-80
2023/09/22 02:00:18;;;;;;;;;;;;;;;19.54;100.00;98388.31;4979980;28;20402;-79
2023/09/22 02:02:44;;;;;;;;;;;;;;;19.56;100.00;98401.44;4982274;28;19917;-81
2023/09/22 02:05:11;;;;;;;;;;;;;;;19.58;100.00;98426.09;4985505;28;19925;-79
2023/09/22 02:07:37;;;;;;;;;;;;;;;19.58;100.00;98420.75;4983045;28;19922;-80
2023/09/22 02:10:04;;;;;;;;;;;;;;;19.59;100.00;98417.03;4993937;28;19925;-80
2023/09/22 02:12:30;;;;;;;;;;;;;;;19.54;100.00;98411.56;4987663;28;19934;-81
2023/09/22 02:14:56;;;;;;;;;;;;;;;19.52;100.00;98395.72;4981686;28;19925;-80
2023/09/22 02:17:22;;;;;;;;;;;;;;;19.53;100.00;98372.47;4984552;28;19922;-80
2023/09/22 02:19:47;;;;;;;;;;;;;;;19.54;100.00;98366.06;4982984;28;19922;-78
2023/09/22 02:22:13;;;;;;;;;;;;;;;19.55;100.00;98383.78;4983569;28;19922;-78
2023/09/22 02:24:39;;;;;;;;;;;;;;;19.54;100.00;98382.94;4985878;28;19921;-78
2023/09/22 02:27:04;;;;;;;;;;;;;;;19.55;100.00;98365.03;4982416;28;19922;-78
2023/09/22 02:29:30;;;;;;;;;;;;;;;19.52;100.00;98373.50;4980730;28;19925;-79
2023/09/22 02:31:55;;;;;;;;;;;;;;;19.54;100.00;98382.13;4985541;28;20392;-79
2023/09/22 02:34:21;;;;;;;;;;;;;;;19.53;100.00;98389.34;4980044;28;19923;-78
2023/09/22 02:36:50;;;;;;;;;;;;;;;19.55;100.00;98389.13;4986574;28;19922;-78
2023/09/22 02:39:16;;;;;;;;;;;;;;;19.54;100.00;98382.13;4979186;28;20275;-78
2023/09/22 02:41:41;;;;;;;;;;;;;;;19.52;100.00;98392.22;4987415;28;19929;-78
2023/09/22 02:44:08;;;;;;;;;;;;;;;19.53;100.00;98394.69;4982952;28;19922;-77
2023/09/22 02:46:37;;;;;;;;;;;;;;;19.52;100.00;98394.91;4977934;28;19926;-77
2023/09/22 02:49:03;;;;;;;;;;;;;;;19.52;100.00;98401.06;4981665;28;19928;-77
2023/09/22 02:51:28;;;;;;;;;;;;;;;19.51;100.00;98404.78;4985929;28;19926;-78
2023/09/22 02:53:54;;;;;;;;;;;;;;;19.53;100.00;98412.59;4981290;28;19973;-78
2023/09/22 02:56:19;;;;;;;;;;;;;;;19.51;100.00;98414.69;4982856;28;20301;-78
2023/09/22 02:58:45;;;;;;;;;;;;;;;19.51;100.00;98417.34;4984843;28;19921;-78
2023/09/22 03:01:11;;;;;;;;;;;;;;;19.51;100.00;98401.28;4982601;28;20374;-77
2023/09/22 03:03:37;;;;;;;;;;;;;;;19.51;100.00;98379.91;4978582;28;20518;-79
2023/09/22 03:06:04;;;;;;;;;;;;;;;19.52;100.00;98386.88;4984897;28;19928;-79
2023/09/22 03:08:30;;;;;;;;;;;;;;;19.50;100.00;98386.28;4979144;28;20393;-79
2023/09/22 03:10:55;;;;;;;;;;;;;;;19.49;100.00;98382.81;4984609;28;19976;-80
2023/09/22 03:13:21;;;;;;;;;;;;;;;19.48;100.00;98362.47;4982031;28;19929;-80
2023/09/22 03:15:46;;;;;;;;;;;;;;;19.48;100.00;98348.25;4986215;28;20077;-79
2023/09/22 03:18:12;;;;;;;;;;;;;;;19.46;100.00;98353.00;4982728;28;19929;-79
2023/09/22 03:20:37;;;;;;;;;;;;;;;19.42;100.00;98319.72;4986904;28;20272;-79
2023/09/22 03:23:03;;;;;;;;;;;;;;;19.44;100.00;98301.59;4978456;28;19929;-79
2023/09/22 03:25:29;;;;;;;;;;;;;;;19.44;100.00;98320.31;4982200;28;20400;-79
2023/09/22 03:27:54;;;;;;;;;;;;;;;19.37;100.00;98328.44;4981250;28;19926;-80
2023/09/22 03:30:21;;;;;;;;;;;;;;;19.34;100.00;98354.81;4983707;28;20008;-79
2023/09/22 03:32:48;;;;;;;;;;;;;;;19.32;100.00;98356.91;4983675;28;20305;-79
2023/09/22 03:35:14;;;;;;;;;;;;;;;19.31;100.00;98356.09;4985956;28;19957;-79
2023/09/22 03:37:40;;;;;;;;;;;;;;;19.29;100.00;98376.06;4982250;28;19968;-80
2023/09/22 03:40:13;;;;;;;;;;;;;;;19.18;100.00;98391.84;4981753;28;20289;-79
2023/09/22 03:42:40;;;;;;;;;;;;;;;19.14;100.00;98376.50;4990572;28;20394;-79
2023/09/22 03:45:07;;;;;;;;;;;;;;;19.12;100.00;98368.69;4982929;28;19922;-80
2023/09/22 03:47:32;;;;;;;;;;;;;;;19.14;100.00;98377.28;4981949;28;19965;-79
2023/09/22 03:49:57;;;;;;;;;;;;;;;19.12;100.00;98384.72;4984140;28;19961;-80
2023/09/22 03:52:23;;;;;;;;;;;;;;;19.13;100.00;98364.16;4982465;28;20312;-78
2023/09/22 03:54:48;;;;;;;;;;;;;;;19.13;100.00;98346.25;4982339;28;19976;-78
2023/09/22 03:57:16;;;;;;;;;;;;;;;19.11;100.00;98351.00;4981345;28;19921;-79
2023/09/22 03:59:42;;;;;;;;;;;;;;;19.15;100.00;98340.66;4982605;28;20394;-78
2023/09/22 04:02:07;;;;;;;;;;;;;;;19.14;100.00;98329.16;4978736;28;19944;-79
2023/09/22 04:04:32;;;;;;;;;;;;;;;19.15;100.00;98319.28;4980043;28;19969;-79
2023/09/22 04:06:59;;;;;;;;;;;;;;;19.15;100.00;98325.44;4980244;28;19949;-80
2023/09/22 04:09:25;;;;;;;;;;;;;;;19.16;100.00;98343.13;4983828;28;20040;-79
2023/09/22 04:11:52;;;;;;;;;;;;;;;19.15;100.00;98338.00;4982804;28;20094;-79
2023/09/22 04:14:17;;;;;;;;;;;;;;;19.11;100.00;98351.00;4981635;28;19922;-78
2023/09/22 04:16:43;;;;;;;;;;;;;;;19.10;100.00;98344.03;4982697;28;19956;-78
2023/09/22 04:19:09;;;;;;;;;;;;;;;19.09;100.00;98337.03;4983961;28;20420;-78
2023/09/22 04:21:42;;;;;;;;;;;;;;;19.13;100.00;98350.78;4977911;28;20012;-78
2023/09/22 04:24:09;;;;;;;;;;;;;;;19.14;100.00;98353.22;4980055;28;20397;-78
2023/09/22 04:26:42;;;;;;;;;;;;;;;19.17;100.00;98366.16;4980599;28;20766;-77
2023/09/22 04:29:08;;;;;;;;;;;;;;;19.14;100.00;98366.59;4976530;28;19996;-79
2023/09/22 04:31:33;;;;;;;;;;;;;;;19.14;100.00;98360.44;4982905;28;20317;-79
2023/09/22 04:33:59;;;;;;;;;;;;;;;19.09;100.00;98363.78;4981490;28;19981;-79
2023/09/22 04:36:24;;;;;;;;;;;;;;;18.97;100.00;98356.75;4980388;28;19952;-79
2023/09/22 04:38:52;;;;;;;;;;;;;;;18.97;100.00;98354.88;4981345;28;20337;-80
2023/09/22 04:41:19;;;;;;;;;;;;;;;18.97;100.00;98346.88;4976387;28;20460;-82
2023/09/22 04:43:45;;;;;;;;;;;;;;;19.02;100.00;98357.72;4979517;28;19922;-79
2023/09/22 04:46:10;;;;;;;;;;;;;;;19.02;100.00;98363.06;4976725;28;19929;-81
2023/09/22 04:48:36;;;;;;;;;;;;;;;19.06;100.00;98369.59;4980484;28;19933;-80
2023/09/22 04:51:01;;;;;;;;;;;;;;;19.08;100.00;98367.53;4984214;28;20341;-77
2023/09/22 04:53:28;;;;;;;;;;;;;;;19.09;100.00;98369.13;4981186;28;19972;-77
2023/09/22 04:56:00;;;;;;;;;;;;;;;19.10;100.00;98365.41;4980784;28;19969;-79
2023/09/22 04:58:26;;;;;;;;;;;;;;;19.10;100.00;98365.41;4975215;28;19979;-78
2023/09/22 05:00:55;;;;;;;;;;;;;;;19.12;100.00;98362.53;4978498;28;19970;-77
2023/09/22 05:03:21;;;;;;;;;;;;;;;19.12;100.00;98358.00;4979197;28;19929;-77
2023/09/22 05:05:46;;;;;;;;;;;;;;;19.14;100.00;98360.44;4983795;28;19923;-83
2023/09/22 05:08:11;;;;;;;;;;;;;;;19.17;100.00;98382.19;4979651;28;20025;-84
2023/09/22 05:10:37;;;;;;;;;;;;;;;19.12;100.00;98403.44;4983440;28;20308;-82
2023/09/22 05:13:06;;;;;;;;;;;;;;;19.06;100.00;98412.38;4983439;28;19922;-83
2023/09/22 05:15:33;;;;;;;;;;;;;;;19.03;100.00;98418.16;4993146;28;20013;-89
2023/09/22 05:17:58;;;;;;;;;;;;;;;19.00;100.00;98412.44;4981807;28;19934;-89
2023/09/22 05:20:24;;;;;;;;;;;;;;;18.99;100.00;98405.47;4979909;28;19928;-88
2023/09/22 05:22:50;;;;;;;;;;;;;;;19.00;100.00;98407.91;5038909;23;20357;-81
2023/09/22 05:25:16;;;;;;;;;;;;;;;19.03;100.00;98407.47;5032721;28;19993;-79
2023/09/22 05:27:44;;;;;;;;;;;;;;;19.04;100.00;98408.28;5034568;28;19948;-81
2023/09/22 05:30:10;;;;;;;;;;;;;;;18.98;100.00;98410.00;5035685;28;19925;-82
2023/09/22 05:32:36;;;;;;;;;;;;;;;18.94;100.00;98411.50;5039150;28;19933;-81
2023/09/22 05:35:01;;;;;;;;;;;;;;;18.94;100.00;98416.84;5036570;28;19917;-82
2023/09/22 05:37:27;;;;;;;;;;;;;;;18.83;100.00;98412.25;5036114;28;20013;-79
2023/09/22 05:39:53;;;;;;;;;;;;;;;18.86;100.00;98411.78;5034486;28;20012;-78
2023/09/22 05:42:18;;;;;;;;;;;;;;;18.83;100.00;98411.41;5032664;28;19935;-79
2023/09/22 05:44:44;;;;;;;;;;;;;;;18.76;100.00;98416.84;5027960;28;19921;-79
2023/09/22 05:47:09;;;;;;;;;;;;;;;18.75;100.00;98415.19;5034215;28;19917;-79
2023/09/22 05:49:35;;;;;;;;;;;;;;;18.72;100.00;98415.66;5033770;28;19932;-78
2023/09/22 05:52:00;;;;;;;;;;;;;;;18.67;100.00;98412.84;5034736;28;19925;-79
2023/09/22 05:54:26;;;;;;;;;;;;;;;18.61;100.00;98416.41;5033363;28;20014;-79
2023/09/22 05:56:51;;;;;;;;;;;;;;;18.51;100.00;98410.69;5033782;28;19987;-80
2023/09/22 05:59:17;;;;;;;;;;;;;;;18.52;100.00;98404.31;5033356;28;19943;-79
2023/09/22 06:01:42;;;;;;;;;;;;;;;18.57;100.00;98396.47;5033927;28;19921;-80
2023/09/22 06:04:09;;;;;;;;;;;;;;;18.61;100.00;98406.53;5033943;28;19944;-79
2023/09/22 06:06:35;;;;;;;;;;;;;;;18.62;100.00;98404.66;5033453;28;20232;-80
2023/09/22 06:09:00;;;;;;;;;;;;;;;18.61;100.00;98401.19;5033117;28;19961;-80
2023/09/22 06:11:26;;;;;;;;;;;;;;;18.64;100.00;98407.91;5033573;28;19928;-78
2023/09/22 06:13:52;;;;;;;;;;;;;;;18.63;100.00;98414.31;5033351;28;20013;-78
2023/09/22 06:16:18;;;;;;;;;;;;;;;18.56;100.00;98411.69;5031912;28;19948;-79
2023/09/22 06:18:44;;;;;;;;;;;;;;;18.59;100.00;98407.78;5033121;28;20012;-80
2023/09/22 06:21:10;;;;;;;;;;;;;;;18.61;100.00;98397.69;5033120;28;19924;-80
2023/09/22 06:23:36;;;;;;;;;;;;;;;18.64;100.00;98399.91;5032696;28;19984;-80
2023/09/22 06:26:05;;;;;;;;;;;;;;;18.70;100.00;98393.66;5033196;28;20383;-78
2023/09/22 06:28:31;;;;;;;;;;;;;;;18.72;100.00;98373.72;5026035;28;19929;-80
2023/09/22 06:31:03;;;;;;;;;;;;;;;18.79;100.00;98379.00;5032391;28;19921;-78
2023/09/22 06:33:30;;;;;;;;;;;;;;;18.83;100.00;98382.03;5032610;28;20023;-80
2023/09/22 06:35:56;;;;;;;;;;;;;;;18.89;100.00;98384.63;5033292;28;19928;-81
2023/09/22 06:38:22;;;;;;;;;;;;;;;18.89;100.00;98384.63;5032671;28;19947;-78
2023/09/22 06:40:47;;;;;;;;;;;;;;;18.89;100.00;98389.16;5033043;28;20000;-78
2023/09/22 06:43:13;;;;;;;;;;;;;;;18.90;100.00;98394.28;5030761;28;19925;-76
2023/09/22 06:45:42;;;;;;;;;;;;;;;18.92;100.00;98405.53;5031761;28;19936;-77
2023/09/22 06:48:09;;;;;;;;;;;;;;;18.85;100.00;98402.13;5032515;28;19921;-79
2023/09/22 06:50:37;;;;;;;;;;;;;;;18.76;100.00;98406.16;5028962;28;20682;-80
2023/09/22 06:53:03;;;;;;;;;;;;;;;18.80;100.00;98407.31;5032638;28;19921;-79
2023/09/22 06:55:30;;;;;;;;;;;;;;;18.87;100.00;98413.41;5032029;28;19936;-79
2023/09/22 06:57:57;;;;;;;;;;;;;;;18.88;100.00;98415.06;5031763;28;19928;-79
2023/09/22 07:00:24;;;;;;;;;;;;;;;18.85;100.00;98418.16;5033869;28;19921;-80
2023/09/22 07:02:49;;;;;;;;;;;;;;;18.85;100.00;98422.72;5033476;28;19928;-78
2023/09/22 07:05:15;;;;;;;;;;;;;;;18.91;100.00;98422.63;5032451;28;19921;-80
2023/09/22 07:07:41;;;;;;;;;;;;;;;18.95;100.00;98421.16;5032513;28;20400;-79
2023/09/22 07:10:09;;;;;;;;;;;;;;;19.02;100.00;98416.53;5032292;28;19974;-78
2023/09/22 07:12:38;;;;;;;;;;;;;;;19.08;100.00;98415.66;5028502;28;20017;-78
2023/09/22 07:15:04;;;;;;;;;;;;;;;19.13;100.00;98423.81;5042605;28;20437;-79
2023/09/22 07:17:31;;;;;;;;;;;;;;;19.13;100.00;98417.63;5031263;28;20737;-79
2023/09/22 07:19:57;;;;;;;;;;;;;;;19.20;100.00;98424.50;5031735;28;20369;-79
2023/09/22 07:22:22;;;;;;;;;;;;;;;19.25;100.00;98423.03;5031197;28;19931;-79
2023/09/22 07:24:50;;;;;;;;;;;;;;;19.23;100.00;98424.06;5031667;28;19975;-80
2023/09/22 07:27:16;;;;;;;;;;;;;;;19.26;100.00;98422.00;5031557;28;19917;-79
2023/09/22 07:29:42;;;;;;;;;;;;;;;19.31;100.00;98414.13;5031480;28;19920;-78
2023/09/22 07:32:08;;;;;;;;;;;;;;;19.39;100.00;98427.16;5030088;28;20382;-79
2023/09/22 07:34:34;;;;;;;;;;;;;;;19.45;100.00;98423.56;5029409;28;19952;-80
2023/09/22 07:36:59;;;;;;;;;;;;;;;19.47;100.00;98422.34;5032289;28;19921;-80
2023/09/22 07:39:24;;;;;;;;;;;;;;;19.26;100.00;98417.47;5025647;28;19921;-79
2023/09/22 07:41:50;;;;;;;;;;;;;;;19.07;100.00;98423.88;5031924;28;19945;-80
2023/09/22 07:44:21;;;;;;;;;;;;;;;19.02;100.00;98429.91;5033212;28;19928;-80
2023/09/22 07:46:47;;;;;;;;;;;;;;;19.01;100.00;98436.28;5044829;28;19921;-79
2023/09/22 07:49:13;;;;;;;;;;;;;;;19.12;100.00;98440.06;5031362;28;20564;-80
2023/09/22 07:51:38;;;;;;;;;;;;;;;19.20;100.00;98443.22;5031124;28;19921;-80
2023/09/22 07:54:04;;;;;;;;;;;;;;;19.28;100.00;98446.66;5031170;28;19928;-81
2023/09/22 07:56:30;;;;;;;;;;;;;;;19.37;100.00;98456.00;5031274;28;19921;-80
2023/09/22 07:58:57;;;;;;;;;;;;;;;19.43;100.00;98469.31;5031797;28;20305;-81
2023/09/22 08:01:24;;;;;;;;;;;;;;;19.46;100.00;98476.06;5031063;28;19944;-80
2023/09/22 08:03:50;;;;;;;;;;;;;;;19.33;100.00;98463.66;5029992;28;20293;-81
2023/09/22 08:06:16;;;;;;;;;;;;;;;19.38;100.00;98463.78;5034620;28;20436;-81
2023/09/22 08:08:41;;;;;;;;;;;;;;;19.42;100.00;98469.53;5033639;28;20067;-79
2023/09/22 08:11:06;;;;;;;;;;;;;;;19.54;100.00;98478.47;5031291;28;19921;-78
2023/09/22 08:13:33;;;;;;;;;;;;;;;19.60;100.00;98493.59;5030476;28;20028;-79
2023/09/22 08:15:59;;;;;;;;;;;;;;;19.57;100.00;98494.03;5030801;28;19929;-79
2023/09/22 08:18:25;;;;;;;;;;;;;;;19.50;100.00;98499.47;5041678;28;19929;-80
2023/09/22 08:20:51;;;;;;;;;;;;;;;19.50;100.00;98498.66;5030612;28;20038;-79
2023/09/22 08:23:17;;;;;;;;;;;;;;;19.51;100.00;98505.66;5030035;28;19925;-79
2023/09/22 08:25:43;;;;;;;;;;;;;;;19.53;100.00;98492.88;5029480;28;19952;-80
2023/09/22 08:28:12;;;;;;;;;;;;;;;19.61;100.00;98503.28;5029660;28;19921;-79
2023/09/22 08:30:41;;;;;;;;;;;;;;;19.68;100.00;98489.78;5030811;28;19928;-80
2023/09/22 08:33:07;;;;;;;;;;;;;;;19.75;100.00;98485.16;5030364;28;19921;-79
2023/09/22 08:35:33;;;;;;;;;;;;;;;19.87;100.00;98478.81;5029067;28;20339;-79
2023/09/22 08:38:00;;;;;;;;;;;;;;;19.91;100.00;98488.00;5030616;28;19955;-80
2023/09/22 08:40:26;;;;;;;;;;;;;;;19.88;100.00;98491.16;5030161;28;20357;-79
2023/09/22 08:42:55;;;;;;;;;;;;;;;20.06;100.00;98486.78;5030778;28;20012;-79
2023/09/22 08:45:21;;;;;;;;;;;;;;;20.19;100.00;98491.94;5028928;28;20319;-79
2023/09/22 08:47:47;;;;;;;;;;;;;;;20.21;100.00;98490.63;5030453;28;19921;-79
2023/09/22 08:50:14;;;;;;;;;;;;;;;20.16;100.00;98489.69;5030265;28;19925;-80
2023/09/22 08:52:40;;;;;;;;;;;;;;;20.13;100.00;98482.13;5030756;28;20345;-79
2023/09/22 08:55:13;;;;;;;;;;;;;;;20.23;100.00;98487.72;5030296;28;19957;-79
2023/09/22 08:57:40;;;;;;;;;;;;;;;20.24;100.00;98494.72;5029330;28;20285;-79
2023/09/22 09:00:12;;;;;;;;;;;;;;;20.31;100.00;98496.25;5030813;28;19924;-79
2023/09/22 09:02:38;;;;;;;;;;;;;;;20.33;100.00;98490.69;5033376;28;19925;-78
2023/09/22 09:05:22;;;;;;;;;;;;;;;20.37;100.00;98499.91;5030491;28;19921;-79
2023/09/22 09:07:48;;;;;;;;;;;;;;;20.39;100.00;98503.16;5034475;28;20420;-78
2023/09/22 09:10:31;;;;;;;;;;;;;;;20.41;100.00;98519.84;5033846;28;19979;-78
2023/09/22 09:13:01;;;;;;;;;;;;;;;20.31;100.00;98532.97;5034394;28;20019;-79
2023/09/22 09:15:27;;;;;;;;;;;;;;;20.15;100.00;98528.22;5033745;28;19921;-78
2023/09/22 09:18:03;;;;;;;;;;;;;;;20.08;100.00;98532.91;5031432;28;19932;-78
2023/09/22 09:20:29;;;;;;;;;;;;;;;20.02;100.00;98532.78;5033193;28;19925;-79
2023/09/22 09:22:55;;;;;;;;;;;;;;;19.96;100.00;98531.00;5033863;28;19925;-79
2023/09/22 09:25:20;;;;;;;;;;;;;;;19.94;100.00;98537.63;5033623;28;19932;-78
2023/09/22 09:27:46;;;;;;;;;;;;;;;19.95;100.00;98540.06;5034495;28;19917;-78
2023/09/22 09:30:13;;;;;;;;;;;;;;;19.93;100.00;98547.50;5037173;28;20289;-77
2023/09/22 09:32:40;;;;;;;;;;;;;;;19.92;100.00;98540.50;5034031;28;19921;-77
2023/09/22 09:35:11;;;;;;;;;;;;;;;19.89;100.00;98535.63;5033399;28;19925;-76
2023/09/22 09:37:41;;;;;;;;;;;;;;;19.92;100.00;98540.50;5041844;28;19921;-77
2023/09/22 09:40:10;;;;;;;;;;;;;;;19.97;100.00;98543.31;5033750;28;19921;-79
2023/09/22 09:42:39;;;;;;;;;;;;;;;19.94;100.00;98543.78;5029845;28;19925;-77
2023/09/22 09:45:05;;;;;;;;;;;;;;;19.96;100.00;98536.34;5029734;28;20013;-77
2023/09/22 09:47:35;;;;;;;;;;;;;;;19.98;100.00;98539.59;5033219;28;20019;-77
2023/09/22 09:50:01;;;;;;;;;;;;;;;19.95;100.00;98542.75;5033588;28;20445;-77
2023/09/22 09:52:48;;;;;;;;;;;;;;;19.95;100.00;98537.41;5033118;28;19921;-77
2023/09/22 09:55:14;;;;;;;;;;;;;;;19.94;100.00;98538.44;5030059;28;20372;-77
2023/09/22 09:57:42;;;;;;;;;;;;;;;19.94;100.00;98538.44;5033177;28;20007;-77
2023/09/22 10:00:13;;;;;;;;;;;;;;;19.91;100.00;98533.50;5033460;28;19921;-77
2023/09/22 10:02:45;;;;;;;;;;;;;;;19.90;100.00;98521.19;5033477;28;19928;-77
2023/09/22 10:05:21;;;;;;;;;;;;;;;19.95;100.00;98517.84;5029832;28;20388;-77
2023/09/22 10:07:47;;;;;;;;;;;;;;;20.04;100.00;98517.28;5030730;28;20618;-78
2023/09/22 10:10:14;;;;;;;;;;;;;;;20.18;100.00;98517.06;5032990;28;19992;-77
2023/09/22 10:12:43;;;;;;;;;;;;;;;20.30;100.00;98513.38;5031990;28;19976;-77
2023/09/22 10:15:09;;;;;;;;;;;;;;;20.42;100.00;98502.72;5033943;28;20415;-78
2023/09/22 10:17:35;;;;;;;;;;;;;;;20.42;100.00;98498.16;5028881;28;19921;-77
2023/09/22 10:20:04;;;;;;;;;;;;;;;20.42;100.00;98502.72;5033416;28;20676;-77
2023/09/22 10:22:31;;;;;;;;;;;;;;;20.40;100.00;98500.25;5032493;28;20396;-78
2023/09/22 10:25:12;;;;;;;;;;;;;;;20.39;100.00;98487.91;5032526;28;19929;-76
2023/09/22 10:27:54;;;;;;;;;;;;;;;20.38;100.00;98477.44;5029364;28;19990;-77
2023/09/22 10:30:20;;;;;;;;;;;;;;;20.35;100.00;98475.22;5032707;28;19928;-76
2023/09/22 10:32:45;;;;;;;;;;;;;;;20.28;100.00;98480.63;5033279;28;19921;-76
2023/09/22 10:35:12;;;;;;;;;;;;;;;20.28;100.00;98479.81;5032451;28;19917;-78
2023/09/22 10:37:55;;;;;;;;;;;;;;;20.31;100.00;98479.38;5032540;28;19925;-78
2023/09/22 10:40:22;;;;;;;;;;;;;;;20.31;100.00;98464.13;5030273;28;19921;-77
2023/09/22 10:42:52;;;;;;;;;;;;;;;20.46;100.00;98462.84;5032701;28;20377;-76
2023/09/22 10:45:21;;;;;;;;;;;;;;;20.52;100.00;98443.16;5032199;28;20424;-78
2023/09/22 10:47:51;;;;;;;;;;;;;;;20.50;100.00;98445.28;5032701;28;19921;-78
2023/09/22 10:50:21;;;;;;;;;;;;;;;20.69;100.00;98438.72;5030362;28;19921;-77
2023/09/22 10:52:50;;;;;;;;;;;;;;;20.72;100.00;98433.72;5032515;28;19921;-77
2023/09/22 10:55:26;;;;;;;;;;;;;;;20.85;100.00;98422.75;5031698;28;20324;-78
2023/09/22 10:57:52;;;;;;;;;;;;;;;21.04;100.00;98423.41;5031105;28;19983;-77
2023/09/22 11:00:18;;;;;;;;;;;;;;;21.18;100.00;98410.56;5031828;28;19922;-77
2023/09/22 11:02:44;;;;;;;;;;;;;;;21.25;100.00;98408.56;5031227;28;19992;-78
2023/09/22 11:05:14;;;;;;;;;;;;;;;21.31;100.00;98404.13;5031220;28;19921;-77
2023/09/22 11:07:42;;;;;;;;;;;;;;;21.28;100.00;98410.75;5030077;28;20682;-79
2023/09/22 11:10:07;;;;;;;;;;;;;;;21.33;100.00;98415.41;5029247;28;19925;-77
2023/09/22 11:12:33;;;;;;;;;;;;;;;21.38;100.00;98415.53;5030446;28;19925;-78
2023/09/22 11:15:01;;;;;;;;;;;;;;;21.53;100.00;98407.75;5031103;28;19941;-77
2023/09/22 11:17:39;;;;;;;;;;;;;;;21.71;100.00;98409.41;5029369;28;20336;-79
2023/09/22 11:20:12;;;;;;;;;;;;;;;21.86;100.00;98420.41;5028415;28;19925;-90
2023/09/22 11:22:42;;;;;;;;;;;;;;;21.97;100.00;98431.09;5033232;28;20381;-81
2023/09/22 11:25:11;;;;;;;;;;;;;;;21.98;100.00;98429.22;5031890;28;19921;-79
2023/09/22 11:28:03;;;;;;;;;;;;;;;21.98;100.00;98437.28;5028821;28;20498;-80
2023/09/22 11:30:28;;;;;;;;;;;;;;;22.09;100.00;98449.81;5028962;28;19964;-80
2023/09/22 11:32:54;;;;;;;;;;;;;;;22.04;100.00;98447.88;5032287;28;19975;-79
2023/09/22 11:35:29;;;;;;;;;;;;;;;22.07;100.00;98446.59;5032160;28;19988;-81
2023/09/22 11:37:55;;;;;;;;;;;;;;;22.04;100.00;98444.38;5032458;28;19925;-81
2023/09/22 11:40:22;;;;;;;;;;;;;;;22.14;100.00;98441.06;5032370;28;19944;-81
2023/09/22 11:42:48;;;;;;;;;;;;;;;22.13;100.00;98445.63;5031868;28;19933;-80
2023/09/22 11:45:20;;;;;;;;;;;;;;;22.18;100.00;98445.69;5031879;28;20031;-80
2023/09/22 11:47:46;;;;;;;;;;;;;;;22.25;100.00;98434.78;5030636;28;20333;-81
2023/09/22 11:50:22;;;;;;;;;;;;;;;22.38;100.00;98437.94;5031721;28;19968;-78
2023/09/22 11:52:48;;;;;;;;;;;;;;;22.44;100.00;98423.50;5031520;28;19921;-80
2023/09/22 11:55:13;;;;;;;;;;;;;;;22.31;100.00;98431.94;5031393;28;19921;-80
2023/09/22 11:57:39;;;;;;;;;;;;;;;22.37;100.00;98436.34;5031022;28;20385;-79
2023/09/22 12:00:07;;;;;;;;;;;;;;;22.58;100.00;98429.38;5031440;28;19956;-81
2023/09/22 12:02:33;;;;;;;;;;;;;;;22.74;100.00;98419.66;5025689;28;20780;-80
2023/09/22 12:04:58;;;;;;;;;;;;;;;22.94;100.00;98419.94;5030964;28;20007;-80
2023/09/22 12:07:24;;;;;;;;;;;;;;;22.98;100.00;98415.69;5030924;28;19921;-80
2023/09/22 12:09:49;;;;;;;;;;;;;;;23.08;100.00;98417.69;5031865;28;19929;-80
2023/09/22 12:12:14;;;;;;;;;;;;;;;23.32;100.00;98423.63;5030906;28;19921;-81
2023/09/22 12:14:40;;;;;;;;;;;;;;;23.47;100.00;98410.34;5031700;28;19921;-81
2023/09/22 12:17:05;;;;;;;;;;;;;;;23.58;100.00;98412.09;5032241;28;20300;-81
2023/09/22 12:19:31;;;;;;;;;;;;;;;23.62;100.00;98405.16;5031942;28;20308;-81
2023/09/22 12:21:56;;;;;;;;;;;;;;;23.66;100.00;98411.63;5035335;28;20403;-81
2023/09/22 12:24:22;;;;;;;;;;;;;;;23.70;100.00;98417.31;5031931;28;19925;-81
2023/09/22 12:26:47;;;;;;;;;;;;;;;23.70;100.00;98412.75;5031347;28;20462;-81
2023/09/22 12:29:13;;;;;;;;;;;;;;;23.72;100.00;98410.63;5032076;28;19921;-81
2023/09/22 12:31:39;;;;;;;;;;;;;;;23.85;100.00;98415.59;5033258;28;19921;-81
2023/09/22 12:34:04;;;;;;;;;;;;;;;23.98;100.00;98415.16;5027326;28;19925;-81